Time;durP1;ratioP1;P1;durP2;ratioP2;P2;SDS_P1;SDS_P2;PMS_P1;PMS_P2;Temp;Humidity;BMP_temperature;BMP_pressure;BME280_temperature;BME280_humidity;BME280_pressure;Samples;Min_cycle;Max_cycle;Signal;HPM_P1;HPM_P2
2022/03/29 00:04:01;;;;;;;18.70;8.27;;;12.10;79.30;;;;;;10359419;28;20038;-61
2022/03/29 00:09:01;;;;;;;17.83;8.27;;;12.00;79.80;;;;;;10358815;28;20049;-61
2022/03/29 00:14:02;;;;;;;15.63;7.75;;;12.00;79.30;;;;;;10359071;28;20555;-61
2022/03/29 00:19:03;;;;;;;18.17;8.27;;;12.00;79.20;;;;;;10352140;28;20088;-61
2022/03/29 00:24:04;;;;;;;16.08;7.65;;;12.00;79.20;;;;;;10359405;28;20038;-60
2022/03/29 00:29:04;;;;;;;21.65;7.93;;;12.00;79.20;;;;;;10359336;28;20176;-61
2022/03/29 00:34:05;;;;;;;18.50;8.23;;;12.00;79.20;;;;;;10357705;28;20129;-63
2022/03/29 00:39:06;;;;;;;19.63;8.68;;;11.90;79.10;;;;;;10358900;28;20492;-61
2022/03/29 00:44:06;;;;;;;15.63;7.30;;;11.90;79.10;;;;;;10360972;28;20033;-61
2022/03/29 00:49:07;;;;;;;17.55;7.97;;;11.90;79.10;;;;;;10361016;28;20033;-60
2022/03/29 00:54:08;;;;;;;20.63;8.20;;;11.90;79.20;;;;;;10359607;28;20099;-63
2022/03/29 00:59:10;;;;;;;18.73;8.07;;;11.90;79.20;;;;;;10360753;28;20029;-60
2022/03/29 01:04:11;;;;;;;18.98;8.52;;;11.80;79.10;;;;;;10363455;28;20041;-61
2022/03/29 01:09:12;;;;;;;17.90;7.82;;;11.90;79.20;;;;;;10359901;28;20065;-62
2022/03/29 01:14:13;;;;;;;17.20;8.05;;;11.80;79.10;;;;;;10367005;28;20125;-61
2022/03/29 01:19:17;;;;;;;16.05;7.88;;;11.80;79.10;;;;;;10368503;28;20030;-62
2022/03/29 01:24:18;;;;;;;17.52;8.18;;;11.80;79.10;;;;;;10367007;28;20076;-60
2022/03/29 01:29:23;;;;;;;14.48;7.60;;;11.80;79.70;;;;;;10363170;28;20029;-61
2022/03/29 01:34:24;;;;;;;13.07;6.93;;;11.80;79.10;;;;;;10364008;28;20038;-62
2022/03/29 01:39:25;;;;;;;15.65;7.38;;;11.80;79.10;;;;;;10365266;28;20534;-62
2022/03/29 01:44:25;;;;;;;14.20;6.78;;;11.70;79.00;;;;;;10366829;28;20052;-62
2022/03/29 01:49:26;;;;;;;16.05;7.65;;;11.70;79.00;;;;;;10366261;28;20030;-61
2022/03/29 01:54:27;;;;;;;14.23;6.75;;;11.70;79.60;;;;;;10363530;28;20821;-62
2022/03/29 02:00:30;;;;;;;14.77;7.03;;;11.70;79.00;;;;;;10353366;28;20426;-61
2022/03/29 02:04:48;;;;;;;18.02;7.97;;;11.70;79.00;;;;;;10369016;28;20034;-61
2022/03/29 02:09:49;;;;;;;12.68;6.50;;;11.70;79.00;;;;;;10363189;28;20459;-60
2022/03/29 02:14:50;;;;;;;14.80;7.20;;;11.70;79.00;;;;;;10365530;28;20057;-61
2022/03/29 02:19:51;;;;;;;14.85;7.13;;;11.60;78.90;;;;;;10364577;28;20643;-61
2022/03/29 02:24:52;;;;;;;13.05;6.85;;;11.60;78.90;;;;;;10364942;28;20407;-61
2022/03/29 02:29:53;;;;;;;13.27;7.35;;;11.60;78.90;;;;;;10364057;28;20034;-62
2022/03/29 02:34:53;;;;;;;12.82;6.50;;;11.60;78.90;;;;;;10361228;28;20387;-61
2022/03/29 02:39:54;;;;;;;14.50;7.45;;;11.60;78.90;;;;;;10363560;28;20034;-59
2022/03/29 02:44:55;;;;;;;14.60;6.78;;;11.60;78.90;;;;;;10365057;28;20022;-61
2022/03/29 02:49:56;;;;;;;12.82;6.43;;;11.50;78.90;;;;;;10363541;28;20034;-60
2022/03/29 02:54:56;;;;;;;15.20;7.00;;;11.50;78.80;;;;;;10362686;28;20418;-60
2022/03/29 02:59:57;;;;;;;15.70;7.00;;;11.50;78.90;;;;;;10351126;28;20117;-62
2022/03/29 03:04:58;;;;;;;12.45;6.47;;;11.50;78.90;;;;;;10367195;28;20021;-61
2022/03/29 03:09:59;;;;;;;12.32;6.50;;;11.50;78.90;;;;;;10361179;28;20437;-60
2022/03/29 03:14:59;;;;;;;13.18;6.78;;;11.50;78.90;;;;;;10361257;28;20042;-61
2022/03/29 03:20:01;;;;;;;13.43;6.78;;;11.40;78.80;;;;;;10361314;28;20748;-61
2022/03/29 03:25:02;;;;;;;14.80;7.20;;;11.40;78.90;;;;;;10359331;28;20569;-61
2022/03/29 03:30:04;;;;;;;15.43;6.47;;;11.40;78.80;;;;;;10359995;28;20460;-61
2022/03/29 03:35:05;;;;;;;12.52;6.10;;;11.40;78.80;;;;;;10356245;28;20061;-61
2022/03/29 03:40:10;;;;;;;13.68;6.82;;;11.40;78.80;;;;;;10362893;28;20026;-61
2022/03/29 03:45:11;;;;;;;13.82;6.82;;;11.40;78.90;;;;;;10362475;28;20108;-61
2022/03/29 03:50:11;;;;;;;12.50;6.72;;;11.30;78.80;;;;;;10362426;28;20060;-61
2022/03/29 03:55:12;;;;;;;12.32;6.78;;;11.40;78.90;;;;;;10359473;28;20096;-61
2022/03/29 04:00:13;;;;;;;15.13;7.32;;;11.30;78.90;;;;;;10346906;28;20496;-61
2022/03/29 04:05:14;;;;;;;13.98;7.80;;;11.30;78.90;;;;;;10356597;28;20046;-61
2022/03/29 04:10:15;;;;;;;12.07;6.93;;;11.30;78.90;;;;;;10349670;28;20050;-60
2022/03/29 04:15:16;;;;;;;13.18;7.25;;;11.30;78.90;;;;;;10354721;28;20030;-62
2022/03/29 04:20:16;;;;;;;13.98;7.63;;;11.20;78.90;;;;;;10358098;28;20342;-62
2022/03/29 04:25:17;;;;;;;12.48;7.43;;;11.20;78.90;;;;;;10360821;28;20034;-62
2022/03/29 04:30:18;;;;;;;13.40;8.00;;;11.20;78.90;;;;;;10359159;28;20031;-61
2022/03/29 04:35:19;;;;;;;14.18;7.10;;;11.20;78.90;;;;;;10358530;28;20584;-62
2022/03/29 04:40:20;;;;;;;13.98;7.53;;;11.20;78.90;;;;;;10361848;28;20113;-62
2022/03/29 04:45:21;;;;;;;13.90;7.10;;;11.20;78.90;;;;;;10365118;28;20030;-61
2022/03/29 04:50:22;;;;;;;11.07;6.53;;;11.20;78.90;;;;;;10368122;28;20041;-60
2022/03/29 04:55:23;;;;;;;14.07;7.20;;;11.20;79.00;;;;;;10367501;28;20037;-59
2022/03/29 05:00:25;;;;;;;13.52;6.95;;;11.20;79.00;;;;;;10367166;28;20113;-61
2022/03/29 05:05:26;;;;;;;14.73;7.53;;;11.20;79.00;;;;;;10373529;28;20018;-61
2022/03/29 05:10:27;;;;;;;14.10;7.32;;;11.10;78.90;;;;;;10366867;28;20555;-61
2022/03/29 05:15:28;;;;;;;17.20;7.57;;;11.10;78.90;;;;;;10367332;28;20042;-62
2022/03/29 05:20:28;;;;;;;14.38;7.20;;;11.10;78.90;;;;;;10365353;28;20022;-62
2022/03/29 05:25:29;;;;;;;18.67;7.47;;;11.10;79.00;;;;;;10356049;28;20107;-62
2022/03/29 05:30:30;;;;;;;15.07;7.40;;;11.10;78.90;;;;;;10363725;28;20023;-62
2022/03/29 05:35:31;;;;;;;14.85;7.78;;;11.10;78.90;;;;;;10360523;28;20037;-60
2022/03/29 05:40:32;;;;;;;13.52;7.10;;;11.10;78.90;;;;;;10367385;28;20111;-61
2022/03/29 05:45:33;;;;;;;15.23;7.43;;;11.10;78.90;;;;;;10366917;28;20431;-62
2022/03/29 05:50:34;;;;;;;15.15;7.75;;;11.10;78.90;;;;;;10366857;28;20079;-61
2022/03/29 05:55:34;;;;;;;12.90;7.45;;;11.10;78.90;;;;;;10364128;28;20519;-61
2022/03/29 06:00:35;;;;;;;16.98;7.93;;;11.10;78.90;;;;;;10356204;28;20030;-62
2022/03/29 06:05:36;;;;;;;19.25;8.70;;;11.00;78.80;;;;;;10370808;28;20040;-61
2022/03/29 06:10:38;;;;;;;15.80;7.95;;;11.00;78.80;;;;;;10363334;28;20070;-61
2022/03/29 06:15:38;;;;;;;16.05;8.02;;;11.10;78.80;;;;;;10363493;28;20041;-60
2022/03/29 06:20:39;;;;;;;18.77;7.63;;;11.00;78.80;;;;;;10362850;28;20018;-60
2022/03/29 06:25:40;;;;;;;14.88;7.78;;;11.10;78.80;;;;;;10365948;28;20041;-60
2022/03/29 06:30:41;;;;;;;16.70;7.95;;;11.10;78.80;;;;;;10363150;28;20030;-60
2022/03/29 06:35:42;;;;;;;17.95;8.05;;;11.10;78.80;;;;;;10361926;28;20036;-61
2022/03/29 06:40:42;;;;;;;17.38;7.93;;;11.10;78.80;;;;;;10365238;28;20030;-60
2022/03/29 06:45:44;;;;;;;18.70;8.75;;;11.10;79.30;;;;;;10364449;28;20033;-62
2022/03/29 06:50:45;;;;;;;18.45;8.20;;;11.10;78.70;;;;;;10364445;28;20030;-61
2022/03/29 06:55:45;;;;;;;16.38;7.82;;;11.10;78.70;;;;;;10363254;28;20030;-62
2022/03/29 07:00:47;;;;;;;19.02;8.10;;;11.10;78.70;;;;;;10350191;28;20038;-61
2022/03/29 07:05:48;;;;;;;15.98;8.18;;;11.10;78.60;;;;;;10367743;28;20113;-61
2022/03/29 07:16:09;;;;;;;15.15;7.47;;;11.10;78.60;;;;;;10362665;28;20033;-60
2022/03/29 07:21:10;;;;;;;15.55;7.53;;;11.10;78.60;;;;;;10359851;28;20026;-61
2022/03/29 07:26:11;;;;;;;16.60;7.60;;;11.10;78.60;;;;;;10363019;28;20476;-62
2022/03/29 07:31:11;;;;;;;15.57;7.15;;;11.10;79.20;;;;;;10360964;28;20067;-61
2022/03/29 07:36:12;;;;;;;15.35;7.57;;;11.20;78.60;;;;;;10359293;28;20030;-61
2022/03/29 07:41:13;;;;;;;18.40;8.05;;;11.10;78.60;;;;;;10362735;28;20040;-61
2022/03/29 07:46:14;;;;;;;14.95;7.15;;;11.20;78.60;;;;;;10361848;28;20087;-60
2022/03/29 07:51:16;;;;;;;17.27;7.88;;;11.20;78.50;;;;;;10364131;28;20045;-62
2022/03/29 07:56:17;;;;;;;14.20;6.70;;;11.20;78.50;;;;;;10358552;28;20040;-61
2022/03/29 08:01:18;;;;;;;15.77;7.40;;;11.60;78.60;;;;;;10348966;28;20028;-61
2022/03/29 08:06:19;;;;;;;16.15;7.57;;;11.20;78.30;;;;;;10364359;28;20030;-62
2022/03/29 08:11:21;;;;;;;15.93;7.90;;;11.20;78.20;;;;;;10361549;28;20424;-61
2022/03/29 08:16:22;;;;;;;13.20;6.53;;;11.30;78.30;;;;;;10360693;28;20029;-61
2022/03/29 08:26:43;;;;;;;17.70;7.82;;;11.30;78.10;;;;;;10361090;28;20026;-61
2022/03/29 08:31:45;;;;;;;17.30;7.85;;;11.40;78.00;;;;;;10357704;28;20042;-61
2022/03/29 08:36:49;;;;;;;14.90;7.50;;;11.40;77.90;;;;;;10358838;28;20088;-62
2022/03/29 08:42:02;;;;;;;17.85;7.28;;;11.40;77.80;;;;;;10360845;28;20034;-61
2022/03/29 08:47:06;;;;;;;15.80;7.15;;;11.50;77.80;;;;;;10360568;28;20397;-61
2022/03/29 08:52:07;;;;;;;17.50;8.35;;;11.50;77.80;;;;;;10358233;28;20470;-61
2022/03/29 08:57:08;;;;;;;17.65;7.85;;;11.50;77.70;;;;;;10360570;28;20513;-61
2022/03/29 09:02:15;;;;;;;17.50;7.97;;;11.60;77.70;;;;;;10362550;28;20033;-61
2022/03/29 09:07:16;;;;;;;16.50;7.07;;;11.60;77.60;;;;;;10359599;28;20025;-62
2022/03/29 09:12:19;;;;;;;18.05;8.55;;;11.60;77.60;;;;;;10359531;28;20050;-61
2022/03/29 09:17:38;;;;;;;18.98;8.52;;;11.60;77.50;;;;;;10357332;28;20022;-62
2022/03/29 09:22:49;;;;;;;16.67;7.82;;;11.60;77.40;;;;;;10359485;28;20022;-60
2022/03/29 09:27:58;;;;;;;18.25;7.93;;;11.70;77.40;;;;;;10359835;28;20022;-62
2022/03/29 09:33:01;;;;;;;18.65;8.23;;;11.70;77.90;;;;;;10359502;28;20049;-61
2022/03/29 09:38:02;;;;;;;18.52;8.27;;;11.80;77.30;;;;;;10364949;28;20696;-61
2022/03/29 09:43:08;;;;;;;14.40;7.40;;;11.80;77.20;;;;;;10366491;28;20392;-61
2022/03/29 09:48:29;;;;;;;15.95;7.28;;;11.90;77.00;;;;;;10366711;28;20041;-62
2022/03/29 09:53:41;;;;;;;13.43;7.10;;;12.00;76.90;;;;;;10363694;28;20377;-61
2022/03/29 09:58:42;;;;;;;16.67;7.28;;;12.00;76.70;;;;;;10358759;28;20062;-61
2022/03/29 10:03:44;;;;;;;17.25;7.45;;;12.10;76.70;;;;;;10364451;28;20037;-61
2022/03/29 10:14:10;;;;;;;18.30;7.88;;;12.10;76.60;;;;;;10363437;28;20092;-61
2022/03/29 10:19:11;;;;;;;15.70;7.65;;;12.10;76.70;;;;;;10363558;28;20021;-61
2022/03/29 10:24:16;;;;;;;14.57;7.18;;;12.20;76.80;;;;;;10363627;28;20021;-60
2022/03/29 10:29:18;;;;;;;12.00;6.53;;;12.20;76.80;;;;;;10362772;28;20026;-60
2022/03/29 10:34:24;;;;;;;15.63;6.40;;;12.30;76.70;;;;;;10360384;28;20419;-61
2022/03/29 10:39:57;;;;;;;15.68;7.75;;;12.30;76.80;;;;;;10363039;28;20053;-61
2022/03/29 10:45:10;;;;;;;15.57;7.28;;;12.40;76.70;;;;;;10367443;28;20513;-61
2022/03/29 10:50:13;;;;;;;13.60;7.03;;;12.50;76.50;;;;;;10363850;28;20047;-62
2022/03/29 10:55:28;;;;;;;12.25;6.65;;;12.50;76.40;;;;;;10362278;28;20557;-61
2022/03/29 11:00:31;;;;;;;12.80;6.65;;;12.60;76.30;;;;;;10351474;28;20050;-61
2022/03/29 11:05:32;;;;;;;13.60;7.55;;;12.60;76.20;;;;;;10367877;28;20451;-61
2022/03/29 11:10:44;;;;;;;15.40;7.35;;;12.60;76.00;;;;;;10361511;28;20042;-60
2022/03/29 11:15:45;;;;;;;17.08;7.53;;;12.70;76.60;;;;;;10363437;28;20128;-62
2022/03/29 11:20:53;;;;;;;14.32;7.25;;;12.70;76.00;;;;;;10358055;28;20139;-61
2022/03/29 11:25:54;;;;;;;15.43;7.60;;;12.80;76.00;;;;;;10363311;28;20481;-60
2022/03/29 11:30:55;;;;;;;16.98;7.35;;;12.80;75.90;;;;;;10357790;28;20025;-62
2022/03/29 11:35:56;;;;;;;16.95;7.65;;;12.90;76.00;;;;;;10359749;28;20025;-62
2022/03/29 11:40:58;;;;;;;15.27;7.30;;;12.90;76.00;;;;;;10355085;28;20132;-62
2022/03/29 11:45:58;;;;;;;16.38;7.00;;;12.90;75.90;;;;;;10351104;28;20022;-59
2022/03/29 11:51:01;;;;;;;14.18;6.60;;;13.00;75.90;;;;;;10366064;28;20030;-61
2022/03/29 11:56:04;;;;;;;12.30;6.70;;;13.10;75.90;;;;;;10378746;28;20116;-62
2022/03/29 12:01:09;;;;;;;11.93;7.00;;;13.10;75.80;;;;;;10370719;28;20039;-61
2022/03/29 12:06:19;;;;;;;13.02;6.72;;;13.10;75.70;;;;;;10375059;28;20026;-62
2022/03/29 12:11:35;;;;;;;17.02;6.80;;;13.20;75.60;;;;;;10371110;28;20111;-61
2022/03/29 12:16:48;;;;;;;15.50;7.40;;;13.20;76.10;;;;;;10362625;28;20046;-62
2022/03/29 12:21:59;;;;;;;13.32;7.13;;;13.30;75.60;;;;;;10363788;28;20130;-61
2022/03/29 12:27:05;;;;;;;13.32;6.57;;;13.30;75.50;;;;;;10362858;28;20384;-61
2022/03/29 12:32:06;;;;;;;16.20;7.10;;;13.40;76.20;;;;;;10360430;28;20080;-61
2022/03/29 12:37:13;;;;;;;12.23;6.65;;;13.40;75.60;;;;;;10369288;28;20040;-61
2022/03/29 12:42:16;;;;;;;12.02;6.10;;;13.50;75.50;;;;;;10359865;28;20481;-62
2022/03/29 12:47:17;;;;;;;14.23;6.60;;;13.60;76.10;;;;;;10361317;28;20056;-60
2022/03/29 12:52:19;;;;;;;13.85;6.82;;;13.70;75.40;;;;;;10357857;28;20153;-61
2022/03/29 12:57:22;;;;;;;15.48;6.75;;;13.70;75.30;;;;;;10361209;28;20026;-61
2022/03/29 13:02:25;;;;;;;12.70;6.38;;;13.80;75.40;;;;;;10348102;28;20436;-62
2022/03/29 13:07:44;;;;;;;15.65;6.97;;;13.80;75.30;;;;;;10363272;28;20018;-62
2022/03/29 13:12:51;;;;;;;10.82;6.68;;;13.90;75.40;;;;;;10377376;28;20042;-61
2022/03/29 13:17:52;;;;;;;12.63;6.00;;;13.90;75.40;;;;;;10364094;28;20076;-61
2022/03/29 13:22:53;;;;;;;12.40;6.60;;;14.00;75.40;;;;;;10367096;28;20122;-62
2022/03/29 13:27:53;;;;;;;12.90;6.65;;;14.00;75.40;;;;;;10369031;28;20026;-60
2022/03/29 13:32:54;;;;;;;14.45;6.70;;;14.10;75.50;;;;;;10362559;28;20041;-61
2022/03/29 13:37:54;;;;;;;13.48;6.50;;;14.00;75.50;;;;;;10366816;28;20555;-61
2022/03/29 13:42:55;;;;;;;13.82;7.05;;;14.00;75.70;;;;;;10368340;28;20037;-62
2022/03/29 13:47:57;;;;;;;9.98;5.97;;;14.00;75.80;;;;;;10368736;28;20034;-62
2022/03/29 13:52:58;;;;;;;14.52;6.70;;;14.00;75.90;;;;;;10364907;28;20041;-61
2022/03/29 13:58:00;;;;;;;10.65;6.53;;;14.00;76.20;;;;;;10366099;28;20484;-61
2022/03/29 14:03:02;;;;;;;16.48;6.80;;;14.00;76.40;;;;;;10357048;28;20026;-60
2022/03/29 14:08:03;;;;;;;12.05;6.60;;;14.00;76.60;;;;;;10365402;28;20022;-59
2022/03/29 14:13:05;;;;;;;11.05;5.60;;;14.10;77.20;;;;;;10384342;28;20061;-63
2022/03/29 14:18:09;;;;;;;10.95;6.65;;;14.20;76.40;;;;;;10361182;28;20030;-62
2022/03/29 14:23:11;;;;;;;11.35;6.05;;;14.30;76.20;;;;;;10363441;28;20037;-60
2022/03/29 14:28:12;;;;;;;11.77;6.50;;;14.50;76.00;;;;;;10365475;28;20030;-62
2022/03/29 14:33:13;;;;;;;11.75;5.82;;;14.60;75.90;;;;;;10360098;28;20038;-62
2022/03/29 14:38:14;;;;;;;11.68;6.03;;;14.80;75.70;;;;;;10363078;28;20033;-60
2022/03/29 14:43:15;;;;;;;11.13;5.90;;;14.90;75.50;;;;;;10364852;28;20121;-62
2022/03/29 14:48:16;;;;;;;11.05;5.43;;;14.90;75.40;;;;;;10364820;28;20122;-62
2022/03/29 14:53:17;;;;;;;11.57;6.50;;;14.90;75.50;;;;;;10362479;28;20032;-63
2022/03/29 14:58:18;;;;;;;11.15;5.97;;;14.90;75.50;;;;;;10361312;28;20057;-61
2022/03/29 15:03:19;;;;;;;11.90;5.60;;;15.00;75.30;;;;;;10357037;28;20544;-61
2022/03/29 15:08:20;;;;;;;11.77;5.07;;;15.00;75.30;;;;;;10363293;28;20029;-62
2022/03/29 15:13:21;;;;;;;8.90;5.63;;;15.00;75.40;;;;;;10374398;28;20058;-61
2022/03/29 15:18:22;;;;;;;9.98;5.18;;;14.90;75.60;;;;;;10363226;28;20029;-61
2022/03/29 15:23:22;;;;;;;11.70;5.85;;;14.90;75.80;;;;;;10363323;28;20034;-62
2022/03/29 15:28:23;;;;;;;10.38;5.55;;;14.80;75.80;;;;;;10362380;28;20531;-62
2022/03/29 15:33:25;;;;;;;10.43;5.28;;;14.80;76.00;;;;;;10359948;28;20412;-61
2022/03/29 15:38:26;;;;;;;9.30;5.35;;;14.70;76.00;;;;;;10360684;28;20404;-61
2022/03/29 15:43:27;;;;;;;9.38;4.90;;;14.80;76.10;;;;;;10362932;28;20026;-62
2022/03/29 15:48:28;;;;;;;9.93;5.18;;;14.80;76.00;;;;;;10362715;28;20535;-61
2022/03/29 15:53:29;;;;;;;12.02;6.13;;;14.90;75.80;;;;;;10360990;28;20045;-61
2022/03/29 15:58:30;;;;;;;9.38;5.05;;;14.90;75.80;;;;;;10360962;28;20021;-63
2022/03/29 16:03:31;;;;;;;10.18;5.25;;;14.90;75.90;;;;;;10363489;28;20522;-62
2022/03/29 16:08:34;;;;;;;7.70;4.60;;;14.80;75.90;;;;;;10359592;28;20083;-62
2022/03/29 16:13:35;;;;;;;13.80;5.28;;;14.80;76.00;;;;;;10369416;28;20054;-62
2022/03/29 16:18:35;;;;;;;8.63;4.63;;;14.70;76.00;;;;;;10359641;28;20038;-62
2022/03/29 16:23:36;;;;;;;12.57;4.90;;;14.70;76.00;;;;;;10359368;28;20034;-62
2022/03/29 16:28:39;;;;;;;11.18;5.22;;;14.70;76.00;;;;;;10359758;28;20417;-62
2022/03/29 16:33:40;;;;;;;11.13;5.30;;;14.60;75.90;;;;;;10355828;28;20042;-62
2022/03/29 16:38:40;;;;;;;9.82;5.32;;;14.60;75.80;;;;;;10359619;28;20183;-62
2022/03/29 16:43:43;;;;;;;11.15;5.25;;;14.60;75.80;;;;;;10364820;28;20014;-62
2022/03/29 16:48:43;;;;;;;9.68;5.50;;;14.60;75.80;;;;;;10355677;28;20117;-61
2022/03/29 16:53:45;;;;;;;9.40;4.63;;;14.50;75.90;;;;;;10366945;28;20038;-62
2022/03/29 16:58:46;;;;;;;8.55;4.78;;;14.50;76.00;;;;;;10368383;28;20017;-62
2022/03/29 17:03:46;;;;;;;11.35;4.80;;;14.40;76.00;;;;;;10366875;28;20022;-61
2022/03/29 17:08:49;;;;;;;9.93;4.63;;;14.40;76.00;;;;;;10371559;28;20029;-60
2022/03/29 17:13:49;;;;;;;8.73;4.47;;;14.30;76.10;;;;;;10367589;28;20081;-62
2022/03/29 17:18:50;;;;;;;12.93;4.80;;;14.30;76.20;;;;;;10364852;28;20057;-62
2022/03/29 17:23:52;;;;;;;10.25;5.38;;;14.20;76.20;;;;;;10365748;28;20030;-61
2022/03/29 17:28:53;;;;;;;10.13;4.57;;;14.20;76.20;;;;;;10365772;28;20034;-62
2022/03/29 17:33:54;;;;;;;8.07;4.45;;;14.10;76.20;;;;;;10370436;28;20046;-61
2022/03/29 17:38:56;;;;;;;10.00;4.43;;;14.00;76.20;;;;;;10359603;28;20026;-67
2022/03/29 17:43:57;;;;;;;8.85;4.65;;;14.00;76.40;;;;;;10336892;28;20344;-66
2022/03/29 17:48:58;;;;;;;11.48;5.30;;;14.10;76.40;;;;;;10346867;28;20029;-64
2022/03/29 17:53:59;;;;;;;9.85;4.70;;;13.90;76.40;;;;;;10342120;28;20034;-62
2022/03/29 17:59:00;;;;;;;9.50;5.05;;;13.90;76.40;;;;;;10327907;28;20026;-61
2022/03/29 18:04:01;;;;;;;9.65;5.13;;;13.80;76.50;;;;;;10344924;28;20062;-61
2022/03/29 18:09:03;;;;;;;9.07;4.63;;;13.70;76.60;;;;;;10357049;28;20432;-61
2022/03/29 18:14:05;;;;;;;11.05;4.93;;;13.70;76.60;;;;;;10356827;28;20547;-62
2022/03/29 18:19:05;;;;;;;10.38;4.68;;;13.70;76.80;;;;;;10357782;28;20026;-62
2022/03/29 18:24:07;;;;;;;9.45;4.13;;;13.60;76.90;;;;;;10352962;28;20030;-61
2022/03/29 18:29:07;;;;;;;13.32;4.95;;;13.60;76.90;;;;;;10355811;28;20032;-62
2022/03/29 18:34:08;;;;;;;10.95;5.10;;;13.50;76.90;;;;;;10348755;28;20481;-66
2022/03/29 18:39:10;;;;;;;7.38;4.25;;;13.40;76.80;;;;;;10345555;28;20030;-60
2022/03/29 18:44:11;;;;;;;14.20;5.00;;;13.40;76.80;;;;;;10352562;28;20033;-61
2022/03/29 18:49:13;;;;;;;12.02;5.05;;;13.30;76.80;;;;;;10352542;28;20044;-61
2022/03/29 18:54:14;;;;;;;11.98;4.65;;;13.30;76.70;;;;;;10365088;28;20073;-60
2022/03/29 18:59:20;;;;;;;10.13;4.97;;;13.30;76.70;;;;;;10372144;28;20049;-61
2022/03/29 19:04:21;;;;;;;14.32;5.32;;;13.20;76.60;;;;;;10346332;28;20443;-61
2022/03/29 19:09:23;;;;;;;8.75;5.40;;;13.20;76.60;;;;;;10370960;28;20133;-62
2022/03/29 19:14:24;;;;;;;11.52;5.93;;;13.10;76.50;;;;;;10358601;28;20536;-61
2022/03/29 19:19:26;;;;;;;11.65;5.35;;;13.10;76.40;;;;;;10355695;28;20029;-61
2022/03/29 19:24:27;;;;;;;12.10;5.18;;;13.10;76.50;;;;;;10355371;28;20044;-62
2022/03/29 19:29:32;;;;;;;13.23;5.30;;;13.00;76.40;;;;;;10357477;28;20022;-61
2022/03/29 19:34:33;;;;;;;13.32;5.93;;;13.00;76.30;;;;;;10366617;28;20040;-61
2022/03/29 19:39:39;;;;;;;13.80;5.80;;;13.00;76.30;;;;;;10325972;28;20028;-62
2022/03/29 19:44:45;;;;;;;12.98;5.97;;;12.90;76.20;;;;;;10351248;28;20477;-58
2022/03/29 19:49:46;;;;;;;15.77;6.07;;;12.90;76.20;;;;;;10337587;28;20029;-61
2022/03/29 19:54:48;;;;;;;13.13;5.70;;;12.80;76.20;;;;;;10350829;28;20462;-58
2022/03/29 19:59:49;;;;;;;13.25;6.03;;;12.80;76.20;;;;;;10346002;28;20124;-59
2022/03/29 20:04:52;;;;;;;16.45;6.35;;;12.80;76.20;;;;;;10333655;28;20037;-61
2022/03/29 20:09:57;;;;;;;14.02;6.32;;;12.70;76.10;;;;;;10354702;28;20457;-60
2022/03/29 20:14:58;;;;;;;16.90;6.22;;;12.70;76.10;;;;;;10337053;28;20572;-60
2022/03/29 20:19:59;;;;;;;14.68;5.45;;;12.60;76.00;;;;;;10323582;28;20031;-61
2022/03/29 20:25:00;;;;;;;10.98;6.00;;;12.60;76.00;;;;;;10322053;28;20558;-60
2022/03/29 20:30:04;;;;;;;14.45;5.60;;;12.60;76.10;;;;;;10325217;28;20234;-59
2022/03/29 20:35:05;;;;;;;13.27;6.22;;;12.50;76.00;;;;;;10333935;28;20400;-63
2022/03/29 20:40:06;;;;;;;11.02;5.60;;;12.50;76.00;;;;;;10323720;28;20040;-61
2022/03/29 20:45:07;;;;;;;15.13;6.25;;;12.40;75.90;;;;;;10331788;28;20153;-64
2022/03/29 20:50:09;;;;;;;12.55;5.75;;;12.40;75.90;;;;;;10360438;28;20467;-63
2022/03/29 20:55:11;;;;;;;15.40;5.47;;;12.30;75.90;;;;;;10353471;28;20358;-63
2022/03/29 21:00:12;;;;;;;10.75;5.88;;;12.40;75.90;;;;;;10357710;28;20128;-63
2022/03/29 21:05:13;;;;;;;12.88;6.13;;;12.30;75.90;;;;;;10356940;28;20436;-63
2022/03/29 21:10:14;;;;;;;13.85;5.70;;;12.30;75.80;;;;;;10358501;28;20042;-63
2022/03/29 21:15:15;;;;;;;14.48;5.65;;;12.30;75.80;;;;;;10355949;28;20042;-63
2022/03/29 21:20:15;;;;;;;14.85;6.57;;;12.20;75.70;;;;;;10362633;28;20026;-60
2022/03/29 21:25:16;;;;;;;12.75;5.28;;;12.20;75.70;;;;;;10348517;28;20050;-62
2022/03/29 21:30:16;;;;;;;14.38;6.15;;;12.20;75.70;;;;;;10347210;28;20396;-62
2022/03/29 21:35:17;;;;;;;16.05;5.85;;;12.20;75.70;;;;;;10342474;28;20050;-61
2022/03/29 21:40:18;;;;;;;17.60;6.53;;;12.10;75.60;;;;;;10326747;28;20037;-60
2022/03/29 21:45:19;;;;;;;15.20;6.63;;;12.10;75.60;;;;;;10333542;28;20065;-63
2022/03/29 21:50:20;;;;;;;12.07;5.70;;;12.00;75.50;;;;;;10341845;28;20109;-63
2022/03/29 21:55:21;;;;;;;14.73;6.45;;;12.00;75.50;;;;;;10335209;28;20034;-62
2022/03/29 22:00:33;;;;;;;13.60;6.30;;;12.00;75.50;;;;;;10329028;28;20026;-62
2022/03/29 22:05:35;;;;;;;15.40;5.80;;;12.00;75.40;;;;;;10359395;28;20421;-61
2022/03/29 22:10:36;;;;;;;11.02;5.00;;;12.00;75.50;;;;;;10350552;28;20124;-62
2022/03/29 22:15:39;;;;;;;13.00;5.88;;;12.00;75.50;;;;;;10359350;28;20030;-62
2022/03/29 22:20:41;;;;;;;12.50;5.63;;;11.90;75.40;;;;;;10344727;28;20014;-61
2022/03/29 22:25:43;;;;;;;10.88;5.65;;;11.90;75.40;;;;;;10345769;28;20391;-61
2022/03/29 22:30:44;;;;;;;11.80;5.50;;;11.90;75.40;;;;;;10362474;28;20029;-60
2022/03/29 22:35:44;;;;;;;14.73;5.32;;;11.90;75.40;;;;;;10356780;28;20108;-61
2022/03/29 22:40:45;;;;;;;13.88;6.03;;;11.80;75.40;;;;;;10364996;28;20080;-59
2022/03/29 22:45:47;;;;;;;13.68;5.43;;;11.80;75.40;;;;;;10354290;28;20561;-60
2022/03/29 22:50:47;;;;;;;14.10;5.70;;;11.80;75.40;;;;;;10353418;28;20916;-60
2022/03/29 22:55:48;;;;;;;11.80;5.47;;;11.70;75.40;;;;;;10360330;28;20034;-59
2022/03/29 23:00:49;;;;;;;14.55;5.72;;;11.70;75.40;;;;;;10353660;28;20025;-60
2022/03/29 23:05:49;;;;;;;12.00;5.70;;;11.70;75.50;;;;;;10355226;28;20039;-62
2022/03/29 23:10:50;;;;;;;11.77;5.22;;;11.70;75.40;;;;;;10361741;28;20649;-60
2022/03/29 23:15:51;;;;;;;15.75;5.70;;;11.70;75.50;;;;;;10359682;28;20073;-61
2022/03/29 23:20:51;;;;;;;12.02;5.65;;;11.60;75.50;;;;;;10346113;28;20033;-61
2022/03/29 23:25:52;;;;;;;12.02;4.82;;;11.60;75.50;;;;;;10356049;28;20052;-60
2022/03/29 23:30:53;;;;;;;16.27;6.18;;;11.60;75.50;;;;;;10354297;28;20030;-62
2022/03/29 23:35:53;;;;;;;14.68;5.47;;;11.60;75.50;;;;;;10359588;28;20038;-62
2022/03/29 23:40:54;;;;;;;11.65;5.00;;;11.60;75.50;;;;;;10363274;28;20376;-62
2022/03/29 23:45:55;;;;;;;17.30;5.25;;;11.50;75.50;;;;;;10351236;28;20088;-62
2022/03/29 23:50:56;;;;;;;14.50;5.40;;;11.50;75.50;;;;;;10357625;28;20104;-62
2022/03/29 23:55:56;;;;;;;13.15;5.03;;;11.50;75.50;;;;;;10362897;28;20111;-62
